createdAt,value
2023-01-25T00:01:30.875Z,21.07
2023-01-25T00:04:32.592Z,20.77
2023-01-25T00:07:34.368Z,24.33
2023-01-25T00:10:36.047Z,21.47
2023-01-25T00:13:37.746Z,21.67
2023-01-25T00:16:39.937Z,20.27
2023-01-25T00:19:41.696Z,18.30
2023-01-25T00:22:43.404Z,22.17
2023-01-25T00:25:45.142Z,19.97
2023-01-25T00:28:51.108Z,27.70
2023-01-25T00:32:01.641Z,21.97
2023-01-25T00:35:03.772Z,23.53
2023-01-25T00:38:27.417Z,23.20
2023-01-25T00:41:29.094Z,22.60
2023-01-25T00:44:30.864Z,23.03
2023-01-25T00:47:34.394Z,21.57
2023-01-25T00:50:39.460Z,22.27
2023-01-25T00:53:41.509Z,21.07
2023-01-25T00:56:43.585Z,23.87
2023-01-25T00:59:47.390Z,26.27
2023-01-25T01:02:49.820Z,23.03
2023-01-25T01:06:06.820Z,24.23
2023-01-25T01:09:13.913Z,23.20
2023-01-25T01:12:15.636Z,21.87
2023-01-25T01:15:17.487Z,21.60
2023-01-25T01:18:19.222Z,22.30
2023-01-25T01:21:21.443Z,26.67
2023-01-25T01:24:23.386Z,21.10
2023-01-25T01:27:25.218Z,25.57
2023-01-25T01:30:27.491Z,22.07
2023-01-25T01:33:29.384Z,23.60
2023-01-25T01:36:31.412Z,22.03
2023-01-25T01:39:33.245Z,22.33
2023-01-25T01:42:58.736Z,21.20
2023-01-25T01:46:03.543Z,21.57
2023-01-25T01:49:28.755Z,22.70
2023-01-25T01:52:38.033Z,29.53
2023-01-25T01:55:40.526Z,23.07
2023-01-25T01:58:44.276Z,21.70
2023-01-25T02:01:46.566Z,23.50
2023-01-25T02:04:49.926Z,20.03
2023-01-25T02:07:54.822Z,24.27
2023-01-25T02:10:58.523Z,23.57
2023-01-25T02:14:01.752Z,19.37
2023-01-25T02:17:04.103Z,27.00
2023-01-25T02:20:14.696Z,25.13
2023-01-25T02:23:25.336Z,25.90
2023-01-25T02:26:27.296Z,21.87
2023-01-25T02:29:29.920Z,25.87
2023-01-25T02:32:32.897Z,28.00
2023-01-25T02:35:48.506Z,25.97
2023-01-25T02:38:56.729Z,21.73
2023-01-25T02:41:58.444Z,28.83
2023-01-25T02:45:01.388Z,29.47
2023-01-25T02:48:03.160Z,24.27
2023-01-25T02:51:08.570Z,24.40
2023-01-25T02:54:12.465Z,25.57
2023-01-25T02:57:14.220Z,25.10
2023-01-25T03:00:18.335Z,22.73
2023-01-25T03:03:21.494Z,26.73
2023-01-25T03:06:23.257Z,23.77
2023-01-25T03:09:25.864Z,24.13
2023-01-25T03:12:28.246Z,21.23
2023-01-25T03:15:30.131Z,25.27
2023-01-25T03:18:32.817Z,25.83
2023-01-25T03:21:35.082Z,23.57
2023-01-25T03:24:37.109Z,27.70
2023-01-25T03:27:39.087Z,24.37
2023-01-25T03:30:45.042Z,22.63
2023-01-25T03:33:46.898Z,26.57
2023-01-25T03:36:48.742Z,25.10
2023-01-25T03:39:50.523Z,24.33
2023-01-25T03:42:54.381Z,22.40
2023-01-25T03:46:01.564Z,28.97
2023-01-25T03:49:05.979Z,26.73
2023-01-25T03:52:08.731Z,30.10
2023-01-25T03:55:13.464Z,26.53
2023-01-25T03:58:17.265Z,21.43
2023-01-25T04:01:19.201Z,25.23
2023-01-25T04:04:21.080Z,28.20
2023-01-25T04:07:23.883Z,27.10
2023-01-25T04:10:25.695Z,27.77
2023-01-25T04:13:29.276Z,26.60
2023-01-25T04:16:31.430Z,25.70
2023-01-25T04:19:51.265Z,27.07
2023-01-25T04:22:55.744Z,26.27
2023-01-25T04:26:09.329Z,24.07
2023-01-25T04:29:11.095Z,21.63
2023-01-25T04:32:13.336Z,28.13
2023-01-25T04:35:15.331Z,23.77
2023-01-25T04:38:18.559Z,24.80
2023-01-25T04:41:21.238Z,23.17
2023-01-25T04:44:23.997Z,23.87
2023-01-25T04:47:25.924Z,28.10
2023-01-25T04:50:28.122Z,30.33
2023-01-25T04:53:29.889Z,25.47
2023-01-25T04:56:35.473Z,30.93
2023-01-25T04:59:37.354Z,22.87
2023-01-25T05:02:39.744Z,25.20
2023-01-25T05:05:47.666Z,29.43
2023-01-25T05:08:52.918Z,27.80
2023-01-25T05:11:55.435Z,28.47
2023-01-25T05:15:02.073Z,32.33
2023-01-25T05:18:04.765Z,27.43
2023-01-25T05:21:28.534Z,34.30
2023-01-25T05:24:32.000Z,33.97
2023-01-25T05:27:37.162Z,40.30
2023-01-25T05:30:59.235Z,35.80
2023-01-25T05:34:02.245Z,38.97
2023-01-25T05:37:05.508Z,40.33
2023-01-25T05:40:08.776Z,41.70
2023-01-25T05:43:13.594Z,46.27
2023-01-25T05:46:16.250Z,50.90
2023-01-25T05:49:18.793Z,44.40
2023-01-25T05:52:20.804Z,45.30
2023-01-25T05:55:22.707Z,47.83
2023-01-25T05:58:26.748Z,49.43
2023-01-25T06:01:29.115Z,48.53
2023-01-25T06:04:33.328Z,44.80
2023-01-25T06:07:36.635Z,52.33
2023-01-25T06:10:38.373Z,67.37
2023-01-25T06:13:40.432Z,48.73
2023-01-25T06:16:42.303Z,56.70
2023-01-25T06:20:02.733Z,55.97
2023-01-25T06:23:10.398Z,49.73
2023-01-25T06:26:14.238Z,57.17
2023-01-25T06:29:15.977Z,64.27
2023-01-25T06:32:17.885Z,57.27
2023-01-25T06:35:19.608Z,44.80
2023-01-25T06:38:21.371Z,37.33
2023-01-25T06:41:23.257Z,39.80
2023-01-25T06:44:25.011Z,46.17
2023-01-25T06:47:26.785Z,37.00
2023-01-25T06:50:28.887Z,41.80
2023-01-25T06:53:32.705Z,40.23
2023-01-25T06:56:34.425Z,40.33
2023-01-25T06:59:36.254Z,40.00
2023-01-25T07:02:38.180Z,34.87
2023-01-25T07:05:39.962Z,41.10
2023-01-25T07:08:41.743Z,34.67
2023-01-25T07:11:43.521Z,41.67
2023-01-25T07:14:45.349Z,35.50
2023-01-25T07:17:47.041Z,44.73
2023-01-25T07:20:49.201Z,37.73
2023-01-25T07:23:51.861Z,42.83
2023-01-25T07:26:53.573Z,39.60
2023-01-25T07:29:56.051Z,35.67
2023-01-25T07:32:59.461Z,43.07
2023-01-25T07:36:08.893Z,50.70
2023-01-25T07:39:11.692Z,47.30
2023-01-25T07:42:13.560Z,49.30
2023-01-25T07:45:30.045Z,39.27
2023-01-25T07:48:33.112Z,43.00
2023-01-25T07:51:34.924Z,43.93
2023-01-25T07:54:36.642Z,42.97
2023-01-25T07:57:38.349Z,39.07
2023-01-25T08:00:40.373Z,34.30
2023-01-25T08:03:43.735Z,38.30
2023-01-25T08:06:46.201Z,41.47
2023-01-25T08:09:47.931Z,38.43
2023-01-25T08:12:49.619Z,45.00
2023-01-25T08:15:55.709Z,43.87
2023-01-25T08:18:59.723Z,38.03
2023-01-25T08:22:01.414Z,39.50
2023-01-25T08:25:04.246Z,46.10
2023-01-25T08:28:06.108Z,38.17
2023-01-25T08:31:08.873Z,36.17
2023-01-25T08:34:11.180Z,41.23
2023-01-25T08:37:12.906Z,43.97
2023-01-25T08:40:14.894Z,36.70
2023-01-25T08:43:16.667Z,38.73
2023-01-25T08:46:18.902Z,45.67
2023-01-25T08:49:21.105Z,38.93
2023-01-25T08:52:23.065Z,47.63
2023-01-25T08:55:24.870Z,46.63
2023-01-25T08:58:26.865Z,48.93
2023-01-25T09:01:28.598Z,48.17
2023-01-25T09:04:30.441Z,41.30
2023-01-25T09:07:32.404Z,42.83
2023-01-25T09:10:34.565Z,44.70
2023-01-25T09:13:36.509Z,45.80
2023-01-25T09:16:38.203Z,55.60
2023-01-25T09:19:42.036Z,50.03
2023-01-25T09:22:43.819Z,45.07
2023-01-25T09:25:45.473Z,43.20
2023-01-25T09:28:49.951Z,43.13
2023-01-25T09:31:52.441Z,44.23
2023-01-25T09:35:20.465Z,40.80
2023-01-25T09:38:22.719Z,46.57
2023-01-25T09:41:53.542Z,47.97
2023-01-25T09:45:02.449Z,43.27
2023-01-25T09:48:19.435Z,40.00
2023-01-25T09:51:29.264Z,43.03
2023-01-25T09:54:42.384Z,45.53
2023-01-25T09:57:50.933Z,39.63
2023-01-25T10:01:15.682Z,39.77
2023-01-25T10:04:30.520Z,39.87
2023-01-25T10:07:58.917Z,49.30
2023-01-25T10:11:08.197Z,41.80
2023-01-25T10:14:18.112Z,43.00
2023-01-25T10:17:35.372Z,42.87
2023-01-25T10:21:16.562Z,47.10
2023-01-25T10:24:55.960Z,46.70
2023-01-25T10:28:07.937Z,46.93
2023-01-25T10:31:21.911Z,46.60
2023-01-25T10:34:41.364Z,42.67
2023-01-25T10:37:50.732Z,52.10
2023-01-25T10:41:03.979Z,46.50
2023-01-25T10:44:24.804Z,51.53
2023-01-25T10:47:34.223Z,53.87
2023-01-25T10:50:41.083Z,47.37
2023-01-25T10:53:44.212Z,47.90
2023-01-25T10:56:46.808Z,43.80
2023-01-25T10:59:52.599Z,45.93
2023-01-25T11:02:55.342Z,51.73
2023-01-25T11:05:59.244Z,41.17
2023-01-25T11:09:02.657Z,52.00
2023-01-25T11:12:18.461Z,47.37
2023-01-25T11:15:25.557Z,40.80
2023-01-25T11:18:35.137Z,43.10
2023-01-25T11:21:36.988Z,40.90
2023-01-25T11:24:38.701Z,40.97
2023-01-25T11:27:40.441Z,49.90
2023-01-25T11:30:42.459Z,40.47
2023-01-25T11:33:44.309Z,43.47
2023-01-25T11:36:52.046Z,42.37
2023-01-25T11:40:12.377Z,38.77
2023-01-25T11:43:29.103Z,40.43
2023-01-25T11:46:55.103Z,38.53
2023-01-25T11:49:59.616Z,51.90
2023-01-25T11:53:35.440Z,41.63
2023-01-25T11:56:59.427Z,46.40
2023-01-25T12:00:22.312Z,43.03
2023-01-25T12:03:47.111Z,40.30
2023-01-25T12:07:33.501Z,48.87
2023-01-25T12:11:07.653Z,45.27
2023-01-25T12:14:29.484Z,40.70
2023-01-25T12:17:49.144Z,46.93
2023-01-25T12:21:08.116Z,40.43
2023-01-25T12:24:26.739Z,45.13
2023-01-25T12:27:31.462Z,41.70
2023-01-25T12:30:45.990Z,47.20
2023-01-25T12:33:56.035Z,41.30
2023-01-25T12:37:05.028Z,45.40
2023-01-25T12:40:15.409Z,40.57
2023-01-25T12:43:27.859Z,40.97
2023-01-25T12:46:38.650Z,47.93
2023-01-25T12:49:46.275Z,44.10
2023-01-25T12:52:55.865Z,48.67
2023-01-25T12:55:58.681Z,46.80
2023-01-25T12:59:07.952Z,48.87
2023-01-25T13:02:37.599Z,42.97
2023-01-25T13:05:43.444Z,43.53
2023-01-25T13:09:04.601Z,42.00
2023-01-25T13:12:11.392Z,51.57
2023-01-25T13:15:42.389Z,44.53
2023-01-25T13:18:47.080Z,51.67
2023-01-25T13:21:50.520Z,42.83
2023-01-25T13:25:15.632Z,45.10
2023-01-25T13:28:41.977Z,52.57
2023-01-25T13:31:53.503Z,54.60
2023-01-25T13:34:55.347Z,49.77
2023-01-25T13:38:17.279Z,57.57
2023-01-25T13:41:19.273Z,50.70
2023-01-25T13:44:28.270Z,54.80
2023-01-25T13:47:37.826Z,57.63
2023-01-25T13:50:54.841Z,57.93
2023-01-25T13:53:58.767Z,58.23
2023-01-25T13:57:12.877Z,63.63
2023-01-25T14:00:17.113Z,55.10
2023-01-25T14:03:23.190Z,58.03
2023-01-25T14:06:26.334Z,59.77
2023-01-25T14:09:29.865Z,54.80
2023-01-25T14:12:34.854Z,63.17
2023-01-25T14:15:36.566Z,57.23
2023-01-25T14:18:38.662Z,66.07
2023-01-25T14:21:40.369Z,51.37
2023-01-25T14:24:42.086Z,66.13
2023-01-25T14:27:54.797Z,65.83
2023-01-25T14:30:58.887Z,68.57
2023-01-25T14:34:04.011Z,70.07
2023-01-25T14:37:26.047Z,65.20
2023-01-25T14:40:29.778Z,63.07
2023-01-25T14:43:32.083Z,66.03
2023-01-25T14:46:38.501Z,67.87
2023-01-25T14:49:40.218Z,67.40
2023-01-25T14:52:41.952Z,57.63
2023-01-25T14:55:46.154Z,66.40
2023-01-25T14:58:50.961Z,81.80
2023-01-25T15:02:31.927Z,66.63
2023-01-25T15:05:36.423Z,61.10
2023-01-25T15:08:39.094Z,63.13
2023-01-25T15:11:49.269Z,69.83
2023-01-25T15:14:54.190Z,68.10
2023-01-25T15:17:56.462Z,65.27
2023-01-25T15:20:58.356Z,69.23
2023-01-25T15:24:06.838Z,69.33
2023-01-25T15:27:10.315Z,77.27
2023-01-25T15:30:16.808Z,68.83
2023-01-25T15:33:27.339Z,62.53
2023-01-25T15:36:30.506Z,80.43
2023-01-25T15:39:32.636Z,65.77
2023-01-25T15:42:34.380Z,61.70
2023-01-25T15:45:36.223Z,63.67
2023-01-25T15:48:42.107Z,67.87
2023-01-25T15:51:43.892Z,65.40
2023-01-25T15:54:52.243Z,53.83
2023-01-25T15:58:02.193Z,58.33
2023-01-25T16:01:04.390Z,57.30
2023-01-25T16:04:06.142Z,54.83
2023-01-25T16:07:28.797Z,53.37
2023-01-25T16:10:30.619Z,58.33
2023-01-25T16:13:32.323Z,61.43
2023-01-25T16:16:38.669Z,46.87
2023-01-25T16:19:40.430Z,61.90
2023-01-25T16:22:42.119Z,61.63
2023-01-25T16:25:47.546Z,56.93
2023-01-25T16:28:49.407Z,54.53
2023-01-25T16:31:52.597Z,50.33
2023-01-25T16:34:54.499Z,57.03
2023-01-25T16:37:56.879Z,63.60
2023-01-25T16:40:58.563Z,59.67
2023-01-25T16:44:00.346Z,51.07
2023-01-25T16:47:03.667Z,71.00
2023-01-25T16:50:12.577Z,58.33
2023-01-25T16:53:14.446Z,63.00
2023-01-25T16:56:17.428Z,75.37
2023-01-25T16:59:19.863Z,61.47
2023-01-25T17:02:21.696Z,66.80
2023-01-25T17:05:23.440Z,56.50
2023-01-25T17:08:25.416Z,58.60
2023-01-25T17:11:28.182Z,56.33
2023-01-25T17:14:30.399Z,63.70
2023-01-25T17:17:32.226Z,60.23
2023-01-25T17:20:34.026Z,70.03
2023-01-25T17:23:37.605Z,74.50
2023-01-25T17:26:40.655Z,77.03
2023-01-25T17:29:42.656Z,69.63
2023-01-25T17:32:44.657Z,65.37
2023-01-25T17:35:46.465Z,62.00
2023-01-25T17:38:48.276Z,68.70
2023-01-25T17:41:51.225Z,62.47
2023-01-25T17:44:52.952Z,60.77
2023-01-25T17:47:54.659Z,60.07
2023-01-25T17:51:02.723Z,53.53
2023-01-25T17:54:05.338Z,68.13
2023-01-25T17:57:07.034Z,57.50
2023-01-25T18:00:11.955Z,56.43
2023-01-25T18:03:17.373Z,57.33
2023-01-25T18:06:25.310Z,59.70
2023-01-25T18:09:27.378Z,58.13
2023-01-25T18:12:29.084Z,66.67
2023-01-25T18:15:31.129Z,61.87
2023-01-25T18:18:32.854Z,55.63
2023-01-25T18:21:35.699Z,63.97
2023-01-25T18:24:37.636Z,64.67
2023-01-25T18:27:39.687Z,58.77
2023-01-25T18:30:51.961Z,65.93
2023-01-25T18:33:53.833Z,59.57
2023-01-25T18:36:59.136Z,63.20
2023-01-25T18:40:00.999Z,67.43
2023-01-25T18:43:02.754Z,65.87
2023-01-25T18:46:05.287Z,59.80
2023-01-25T18:49:07.000Z,66.30
2023-01-25T18:52:11.895Z,59.70
2023-01-25T18:55:13.796Z,72.47
2023-01-25T18:58:15.521Z,67.50
2023-01-25T19:01:19.609Z,66.17
2023-01-25T19:04:21.393Z,70.17
2023-01-25T19:07:23.160Z,69.97
2023-01-25T19:10:24.891Z,72.90
2023-01-25T19:13:27.135Z,62.53
2023-01-25T19:16:28.932Z,69.43
2023-01-25T19:19:33.565Z,55.07
2023-01-25T19:22:35.378Z,77.93
2023-01-25T19:25:37.104Z,64.83
2023-01-25T19:28:39.214Z,65.70
2023-01-25T19:31:41.071Z,64.37
2023-01-25T19:34:42.875Z,68.53
2023-01-25T19:37:44.643Z,62.90
2023-01-25T19:40:46.329Z,57.40
2023-01-25T19:43:52.374Z,56.70
2023-01-25T19:46:54.173Z,63.87
2023-01-25T19:49:56.965Z,65.70
2023-01-25T19:52:58.753Z,64.70
2023-01-25T19:56:08.353Z,67.43
2023-01-25T19:59:21.530Z,65.77
2023-01-25T20:02:23.283Z,64.03
2023-01-25T20:05:24.970Z,62.00
2023-01-25T20:08:31.660Z,61.73
2023-01-25T20:11:34.324Z,56.87
2023-01-25T20:14:37.413Z,66.30
2023-01-25T20:17:39.217Z,62.23
2023-01-25T20:20:40.920Z,53.97
2023-01-25T20:23:44.798Z,55.80
2023-01-25T20:26:46.579Z,63.00
2023-01-25T20:29:49.105Z,63.97
2023-01-25T20:32:50.899Z,62.80
2023-01-25T20:35:54.934Z,56.03
2023-01-25T20:38:57.020Z,68.83
2023-01-25T20:41:58.996Z,70.03
2023-01-25T20:45:00.749Z,73.20
2023-01-25T20:48:02.489Z,61.73
2023-01-25T20:51:05.913Z,54.67
2023-01-25T20:54:07.640Z,66.50
2023-01-25T20:57:09.445Z,66.27
2023-01-25T21:00:11.551Z,64.53
2023-01-25T21:03:13.242Z,58.97
2023-01-25T21:06:16.281Z,66.03
2023-01-25T21:09:18.025Z,63.10
2023-01-25T21:12:19.840Z,59.03
2023-01-25T21:15:22.456Z,64.60
2023-01-25T21:18:31.370Z,61.77
2023-01-25T21:21:34.654Z,59.50
2023-01-25T21:24:37.171Z,65.77
2023-01-25T21:27:38.895Z,49.53
2023-01-25T21:30:40.592Z,53.13
2023-01-25T21:33:42.831Z,56.93
2023-01-25T21:36:44.576Z,63.17
2023-01-25T21:39:46.305Z,64.87
2023-01-25T21:42:48.616Z,57.73
2023-01-25T21:46:08.672Z,66.17
2023-01-25T21:49:30.504Z,60.50
2023-01-25T21:52:36.235Z,65.57
2023-01-25T21:55:38.186Z,62.83
2023-01-25T21:58:39.893Z,59.97
2023-01-25T22:01:43.000Z,60.80
2023-01-25T22:04:44.795Z,59.63
2023-01-25T22:07:46.552Z,75.23
2023-01-25T22:10:48.264Z,60.80
2023-01-25T22:13:49.977Z,62.30
2023-01-25T22:16:52.583Z,56.20
2023-01-25T22:19:54.636Z,63.20
2023-01-25T22:22:56.490Z,59.03
2023-01-25T22:26:03.560Z,59.87
2023-01-25T22:29:05.285Z,66.23
2023-01-25T22:32:07.017Z,59.47
2023-01-25T22:35:09.053Z,53.50
2023-01-25T22:38:10.768Z,67.60
2023-01-25T22:41:18.048Z,66.00
2023-01-25T22:44:19.882Z,73.73
2023-01-25T22:47:21.604Z,57.57
2023-01-25T22:50:23.318Z,69.63
2023-01-25T22:53:25.045Z,68.30
2023-01-25T22:56:32.302Z,63.67
2023-01-25T22:59:34.031Z,65.47
2023-01-25T23:02:37.957Z,59.33
2023-01-25T23:05:39.792Z,70.33
2023-01-25T23:08:42.170Z,70.07
2023-01-25T23:11:43.885Z,73.07
2023-01-25T23:14:51.522Z,74.13
2023-01-25T23:18:12.017Z,71.87
2023-01-25T23:21:14.128Z,66.63
2023-01-25T23:24:15.917Z,72.03
2023-01-25T23:27:17.652Z,63.17
2023-01-25T23:30:19.482Z,68.30
2023-01-25T23:33:21.183Z,61.30
2023-01-25T23:36:25.466Z,63.70
2023-01-25T23:39:27.237Z,63.40
2023-01-25T23:42:28.985Z,73.43
2023-01-25T23:45:30.752Z,75.63
2023-01-25T23:48:32.671Z,73.63
2023-01-25T23:51:34.396Z,71.70
2023-01-25T23:54:36.222Z,69.93
2023-01-25T23:57:37.910Z,65.97
